Snowmass Village, Colorado
Current Conditions -  °F | °C
As of 1:53 PM on Friday 28 Nov 2014 (Local Time) from KASE Reporting Station
Clear Clear  
Wind Chill: 51°   Ceiling: Unl
Heat Index: 51°   Visibility: 10mi
Dew Point: 20°   Wind: 6mph
Humidity: 29%   Direction: 310°NW
Pressure: 30.08"   Gusts: NA
Location:  39.21°N, 106.94°W
Report Text: KASE 282053Z 31005KT 10SM CLR 11/M07 A3008 RMK AO2 SLP125 T01061067 56026
Loading
Personal Weather Stations






























Interactive Weather Map New forecast layout! Learn more

10-Day Weather Forecast

Advertisements
Track Severe Weather on mobile